Time;durP1;ratioP1;P1;durP2;ratioP2;P2;SDS_P1;SDS_P2;PMS_P1;PMS_P2;Temp;Humidity;BMP_temperature;BMP_pressure;BME280_temperature;BME280_humidity;BME280_pressure;Samples;Min_cycle;Max_cycle;Signal;HPM_P1;HPM_P2
2022/02/26 00:01:16;;;;;;;37.35;25.73;;;1.60;87.20;;;;;;4967336;28;20398;-76
2022/02/26 00:03:42;;;;;;;38.47;25.30;;;1.50;87.10;;;;;;4965611;28;20031;-76
2022/02/26 00:06:08;;;;;;;37.70;24.45;;;1.50;87.20;;;;;;4967194;28;20389;-74
2022/02/26 00:08:34;;;;;;;37.53;25.42;;;1.50;87.10;;;;;;4964055;28;20398;-77
2022/02/26 00:10:59;;;;;;;37.97;25.08;;;1.50;87.20;;;;;;4961739;28;20461;-77
2022/02/26 00:13:26;;;;;;;35.00;23.67;;;1.50;87.20;;;;;;4965505;28;20117;-77
2022/02/26 00:15:51;;;;;;;40.88;25.15;;;1.40;87.30;;;;;;4964430;28;20047;-76
2022/02/26 00:18:17;;;;;;;42.63;26.40;;;1.40;87.10;;;;;;4953177;28;20132;-77
2022/02/26 00:20:42;;;;;;;45.10;28.13;;;1.30;87.10;;;;;;4955967;28;20551;-78
2022/02/26 00:23:08;;;;;;;39.03;26.38;;;1.20;87.20;;;;;;4957144;28;20035;-75
2022/02/26 00:25:34;;;;;;;41.13;26.10;;;1.20;87.40;;;;;;4959996;28;20454;-75
2022/02/26 00:27:59;;;;;;;41.47;27.75;;;1.20;87.50;;;;;;4953314;28;20035;-74
2022/02/26 00:30:25;;;;;;;47.42;29.00;;;1.10;87.70;;;;;;4957931;28;20042;-76
2022/02/26 00:32:51;;;;;;;33.30;23.95;;;1.20;87.60;;;;;;4954910;28;20418;-74
2022/02/26 00:35:16;;;;;;;32.42;22.80;;;1.10;87.40;;;;;;4955567;28;20031;-77
2022/02/26 00:37:43;;;;;;;34.65;23.25;;;1.10;87.30;;;;;;4953298;28;20031;-75
2022/02/26 00:40:11;;;;;;;36.58;23.40;;;1.10;87.20;;;;;;4952001;28;20572;-76
2022/02/26 00:42:37;;;;;;;39.22;23.67;;;1.00;87.30;;;;;;4952322;28;20457;-78
2022/02/26 00:45:04;;;;;;;32.28;24.08;;;1.10;87.40;;;;;;4960904;28;20058;-80
2022/02/26 00:47:30;;;;;;;36.88;23.77;;;1.00;87.50;;;;;;4949825;28;20063;-76
2022/02/26 00:49:56;;;;;;;36.92;24.70;;;1.00;87.50;;;;;;4955307;28;20486;-80
2022/02/26 00:52:28;;;;;;;34.33;23.75;;;1.00;87.40;;;;;;4958978;28;20431;-80
2022/02/26 00:54:54;;;;;;;38.30;24.33;;;1.00;87.10;;;;;;4953249;28;20026;-80
2022/02/26 00:57:20;;;;;;;43.45;27.95;;;0.90;87.10;;;;;;4963966;28;20049;-76
2022/02/26 00:59:46;;;;;;;36.22;24.98;;;0.90;87.20;;;;;;4959332;28;20093;-79
2022/02/26 01:02:11;;;;;;;36.30;25.40;;;0.90;87.30;;;;;;4973160;28;20046;-78
2022/02/26 01:04:38;;;;;;;44.53;27.00;;;0.80;87.40;;;;;;4954883;28;20034;-78
2022/02/26 01:07:05;;;;;;;44.45;27.38;;;0.80;87.60;;;;;;4955874;28;20138;-78
2022/02/26 01:09:31;;;;;;;42.55;26.45;;;0.80;87.80;;;;;;4969144;28;20066;-81
2022/02/26 01:11:57;;;;;;;43.53;26.77;;;0.80;87.90;;;;;;4941663;28;20039;-80
2022/02/26 01:14:22;;;;;;;37.45;25.13;;;0.80;88.00;;;;;;4958619;28;20478;-79
2022/02/26 01:16:48;;;;;;;44.10;25.60;;;0.90;88.20;;;;;;4949934;28;20039;-76
2022/02/26 01:19:14;;;;;;;35.55;25.40;;;0.90;88.20;;;;;;4941024;28;20536;-76
2022/02/26 01:21:39;;;;;;;41.42;27.23;;;0.90;88.20;;;;;;4964592;28;20556;-76
2022/02/26 01:24:05;;;;;;;38.70;27.45;;;0.90;87.90;;;;;;4963620;28;20042;-76
2022/02/26 01:26:31;;;;;;;40.47;27.67;;;0.80;87.90;;;;;;4956897;28;20106;-77
2022/02/26 01:28:57;;;;;;;36.95;25.67;;;0.90;87.90;;;;;;4966131;28;20043;-76
2022/02/26 01:31:22;;;;;;;36.72;25.30;;;0.80;87.80;;;;;;4970165;28;20386;-76
2022/02/26 01:33:48;;;;;;;37.42;25.35;;;0.80;87.70;;;;;;4960223;28;20038;-76
2022/02/26 01:36:14;;;;;;;33.83;24.95;;;0.70;87.80;;;;;;4961277;28;20031;-80
2022/02/26 01:38:40;;;;;;;36.05;24.60;;;0.70;87.90;;;;;;4973538;28;20039;-77
2022/02/26 01:41:07;;;;;;;36.20;24.77;;;0.70;87.90;;;;;;4962747;28;20125;-77
2022/02/26 01:43:34;;;;;;;41.03;23.63;;;0.70;88.00;;;;;;4963312;28;20043;-82
2022/02/26 01:46:01;;;;;;;34.40;23.45;;;0.60;88.10;;;;;;4968283;28;20028;-81
2022/02/26 01:48:27;;;;;;;38.15;23.50;;;0.60;88.10;;;;;;4966506;28;20066;-79
2022/02/26 01:50:53;;;;;;;33.10;25.52;;;0.60;88.20;;;;;;4973284;28;20355;-78
2022/02/26 01:53:19;;;;;;;37.65;25.48;;;0.60;88.30;;;;;;4966635;28;20035;-76
2022/02/26 01:55:45;;;;;;;35.20;24.55;;;0.60;88.30;;;;;;4974931;28;20264;-79
2022/02/26 01:58:10;;;;;;;35.75;24.63;;;0.60;88.40;;;;;;4954657;28;20387;-83
2022/02/26 02:00:36;;;;;;;37.13;24.10;;;0.60;88.50;;;;;;4969730;28;20042;-77
2022/02/26 02:03:02;;;;;;;37.13;23.77;;;0.60;88.60;;;;;;4971978;28;20455;-79
2022/02/26 02:05:30;;;;;;;36.55;23.23;;;0.60;88.70;;;;;;4960107;28;20422;-77
2022/02/26 02:07:58;;;;;;;36.42;26.48;;;0.60;88.80;;;;;;4958794;28;20049;-78
2022/02/26 02:10:24;;;;;;;39.00;25.75;;;0.60;88.90;;;;;;4958515;28;20732;-79
2022/02/26 02:12:49;;;;;;;43.13;24.42;;;0.60;89.00;;;;;;4971375;28;20030;-79
2022/02/26 02:15:15;;;;;;;43.17;25.30;;;0.60;89.00;;;;;;4960220;28;20549;-78
2022/02/26 02:17:44;;;;;;;39.40;25.25;;;0.60;89.10;;;;;;4941786;28;20046;-77
2022/02/26 02:20:10;;;;;;;37.75;25.08;;;0.60;89.10;;;;;;4959241;28;20075;-81
2022/02/26 02:22:36;;;;;;;39.20;25.02;;;0.60;89.10;;;;;;4965401;28;20030;-78
2022/02/26 02:25:05;;;;;;;39.83;25.65;;;0.60;89.20;;;;;;4958191;28;20035;-81
2022/02/26 02:27:31;;;;;;;42.40;27.73;;;0.60;89.20;;;;;;4960910;28;20046;-79
2022/02/26 02:29:57;;;;;;;40.45;28.27;;;0.60;89.20;;;;;;4945776;28;20117;-77
2022/02/26 02:32:23;;;;;;;38.83;25.60;;;0.60;89.30;;;;;;4963115;28;20031;-77
2022/02/26 02:34:49;;;;;;;43.78;25.95;;;0.60;89.30;;;;;;4959258;28;20038;-77
2022/02/26 02:37:14;;;;;;;34.03;24.55;;;0.60;89.30;;;;;;4962307;28;20043;-78
2022/02/26 02:39:43;;;;;;;40.05;26.10;;;0.60;89.30;;;;;;4958696;28;20058;-76
2022/02/26 02:42:09;;;;;;;37.85;25.17;;;0.60;89.30;;;;;;4959629;28;20081;-79
2022/02/26 02:44:34;;;;;;;36.33;24.67;;;0.60;89.40;;;;;;4959838;28;20030;-78
2022/02/26 02:47:00;;;;;;;44.35;26.45;;;0.60;89.40;;;;;;4967693;28;20035;-76
2022/02/26 02:49:26;;;;;;;40.58;26.40;;;0.60;89.40;;;;;;4966800;28;20035;-79
2022/02/26 02:51:52;;;;;;;38.70;25.88;;;0.60;89.40;;;;;;4968491;28;20049;-79
2022/02/26 02:54:17;;;;;;;38.65;26.90;;;0.60;89.40;;;;;;4954944;28;20363;-80
2022/02/26 02:56:43;;;;;;;40.50;25.10;;;0.60;89.40;;;;;;4965236;28;20066;-79
2022/02/26 02:59:09;;;;;;;41.67;25.88;;;0.60;89.50;;;;;;4958511;28;20047;-78
2022/02/26 03:01:35;;;;;;;45.88;26.85;;;0.60;89.60;;;;;;4973549;28;20031;-77
2022/02/26 03:04:00;;;;;;;40.33;25.85;;;0.60;89.60;;;;;;4972334;28;20141;-78
2022/02/26 03:06:27;;;;;;;39.97;25.02;;;0.70;89.60;;;;;;4958579;28;20535;-78
2022/02/26 03:08:53;;;;;;;38.88;25.85;;;0.60;89.70;;;;;;4941941;28;20407;-82
2022/02/26 03:11:20;;;;;;;41.63;26.80;;;0.70;89.70;;;;;;4969317;28;20031;-77
2022/02/26 03:13:46;;;;;;;43.35;25.27;;;0.60;89.70;;;;;;4959363;28;20029;-76
2022/02/26 03:16:12;;;;;;;35.30;26.08;;;0.60;89.70;;;;;;4964101;28;20426;-78
2022/02/26 03:18:38;;;;;;;41.03;26.10;;;0.60;89.80;;;;;;4964378;28;20049;-77
2022/02/26 03:21:04;;;;;;;43.22;25.77;;;0.70;89.80;;;;;;4967021;28;20042;-77
2022/02/26 03:23:29;;;;;;;36.40;25.83;;;0.60;89.80;;;;;;4972133;28;20031;-80
2022/02/26 03:25:55;;;;;;;42.58;24.88;;;0.60;89.90;;;;;;4963852;28;20397;-80
2022/02/26 03:28:21;;;;;;;47.55;25.63;;;0.60;89.80;;;;;;4963978;28;20047;-82
2022/02/26 03:30:47;;;;;;;37.00;25.80;;;0.60;89.80;;;;;;4949805;28;20423;-78
2022/02/26 03:33:12;;;;;;;37.95;25.75;;;0.60;89.90;;;;;;4966170;28;20063;-79
2022/02/26 03:35:39;;;;;;;37.15;24.80;;;0.60;90.00;;;;;;4945348;28;20456;-80
2022/02/26 03:38:05;;;;;;;36.13;24.85;;;0.50;89.90;;;;;;4941420;28;20035;-80
2022/02/26 03:40:31;;;;;;;42.88;26.70;;;0.50;89.90;;;;;;4975682;28;20049;-77
2022/02/26 03:42:57;;;;;;;43.33;26.10;;;0.50;89.80;;;;;;4946266;28;20137;-78
2022/02/26 03:45:23;;;;;;;36.72;24.98;;;0.40;89.90;;;;;;4970142;28;20049;-80
2022/02/26 03:47:49;;;;;;;44.15;27.00;;;0.40;89.80;;;;;;4945841;28;20075;-82
2022/02/26 03:50:15;;;;;;;37.65;25.45;;;0.30;89.80;;;;;;4943569;28;20370;-80
2022/02/26 03:52:41;;;;;;;41.25;26.83;;;0.30;89.80;;;;;;4964874;28;20031;-78
2022/02/26 03:55:08;;;;;;;41.45;25.73;;;0.30;89.70;;;;;;4962997;28;20035;-78
2022/02/26 03:57:34;;;;;;;46.67;28.20;;;0.20;89.60;;;;;;4973193;28;20039;-84
2022/02/26 04:00:00;;;;;;;42.75;25.63;;;0.20;89.70;;;;;;4962696;28;20046;-81
2022/02/26 04:02:26;;;;;;;38.17;25.83;;;0.20;89.70;;;;;;4963268;28;20054;-81
2022/02/26 04:04:52;;;;;;;41.35;25.90;;;0.20;89.70;;;;;;4962984;28;20039;-76
2022/02/26 04:07:18;;;;;;;43.80;27.73;;;0.20;89.70;;;;;;4968699;28;20476;-80
2022/02/26 04:09:44;;;;;;;42.25;26.33;;;0.20;89.70;;;;;;4968681;28;20046;-81
2022/02/26 04:12:10;;;;;;;38.35;26.63;;;0.10;89.70;;;;;;4963882;28;20030;-80
2022/02/26 04:14:35;;;;;;;42.08;26.85;;;0.10;89.70;;;;;;4963067;28;20051;-78
2022/02/26 04:17:01;;;;;;;46.35;27.20;;;0.10;89.70;;;;;;4944623;28;20059;-79
2022/02/26 04:19:27;;;;;;;43.63;28.75;;;0.10;89.70;;;;;;4963597;28;20360;-78
2022/02/26 04:21:53;;;;;;;39.38;25.70;;;0.10;89.80;;;;;;4945377;28;20060;-78
2022/02/26 04:24:18;;;;;;;40.17;26.13;;;0.10;89.80;;;;;;4949720;28;20453;-80
2022/02/26 04:26:47;;;;;;;41.78;26.30;;;0.00;89.80;;;;;;4965799;28;20478;-78
2022/02/26 04:29:13;;;;;;;37.38;26.67;;;0.00;89.80;;;;;;4975534;28;20042;-79
2022/02/26 04:31:39;;;;;;;39.50;26.30;;;0.00;89.80;;;;;;4947539;28;20031;-81
2022/02/26 04:34:04;;;;;;;38.83;24.83;;;0.00;89.70;;;;;;4964844;28;20576;-79
2022/02/26 04:36:31;;;;;;;38.63;25.77;;;0.00;89.60;;;;;;4966537;28;20237;-79
2022/02/26 04:38:56;;;;;;;38.95;25.33;;;0.00;89.60;;;;;;4965842;28;20537;-81
2022/02/26 04:41:22;;;;;;;38.42;25.88;;;0.00;89.70;;;;;;4959283;28;20353;-81
2022/02/26 04:43:48;;;;;;;42.72;25.45;;;0.00;89.70;;;;;;4960026;28;20058;-78
2022/02/26 04:46:14;;;;;;;37.60;24.35;;;0.00;89.70;;;;;;4965312;28;20118;-81
2022/02/26 04:48:40;;;;;;;43.50;26.55;;;0.00;89.70;;;;;;4963468;28;20031;-76
2022/02/26 04:51:08;;;;;;;39.40;25.95;;;0.00;89.70;;;;;;4959341;28;20051;-76
2022/02/26 04:53:38;;;;;;;36.78;25.58;;;0.00;89.80;;;;;;4957804;28;20045;-79
2022/02/26 04:56:05;;;;;;;38.95;25.48;;;0.00;89.80;;;;;;4964892;28;20669;-80
2022/02/26 04:58:32;;;;;;;43.42;25.15;;;0.00;89.70;;;;;;4957127;28;20039;-83
2022/02/26 05:00:58;;;;;;;32.97;24.05;;;0.00;89.60;;;;;;4968467;28;20030;-77
2022/02/26 05:03:24;;;;;;;43.20;26.17;;;0.00;89.60;;;;;;4966419;28;20479;-81
2022/02/26 05:05:50;;;;;;;42.47;26.13;;;0.00;89.70;;;;;;4960114;28;20041;-79
2022/02/26 05:08:15;;;;;;;46.17;27.90;;;0.00;89.70;;;;;;4943909;28;20098;-81
2022/02/26 05:10:41;;;;;;;43.72;25.45;;;0.00;89.70;;;;;;4960862;28;20117;-80
2022/02/26 05:13:07;;;;;;;40.42;25.58;;;0.00;89.80;;;;;;4968767;28;20121;-77
2022/02/26 05:15:32;;;;;;;43.20;26.50;;;0.00;89.90;;;;;;4962858;28;20153;-76
2022/02/26 05:17:58;;;;;;;46.00;27.33;;;0.10;90.00;;;;;;4961892;28;20046;-82
2022/02/26 05:20:24;;;;;;;43.88;26.85;;;0.10;90.00;;;;;;4965385;28;20046;-79
2022/02/26 05:22:50;;;;;;;49.55;27.45;;;0.10;90.10;;;;;;4968385;28;20031;-75
2022/02/26 05:25:15;;;;;;;40.78;25.20;;;0.10;90.10;;;;;;4967676;28;20046;-80
2022/02/26 05:27:41;;;;;;;40.72;27.55;;;0.10;90.20;;;;;;4969191;28;20031;-76
2022/02/26 05:30:08;;;;;;;44.22;28.25;;;0.10;90.20;;;;;;4967425;28;20445;-78
2022/02/26 05:32:34;;;;;;;40.05;25.48;;;0.10;90.20;;;;;;4975097;28;20030;-78
2022/02/26 05:35:00;;;;;;;43.58;26.90;;;0.00;90.10;;;;;;4968782;28;20049;-83
2022/02/26 05:37:25;;;;;;;43.15;28.52;;;0.00;90.10;;;;;;4975625;28;20065;-79
2022/02/26 05:39:51;;;;;;;48.28;29.17;;;0.00;90.20;;;;;;4975278;28;20165;-83
2022/02/26 05:42:16;;;;;;;47.17;28.90;;;0.00;90.20;;;;;;4976683;28;20036;-76
2022/02/26 05:44:43;;;;;;;42.38;27.85;;;0.00;90.30;;;;;;4964431;28;20069;-80
2022/02/26 05:47:08;;;;;;;45.88;29.75;;;0.00;90.30;;;;;;4955235;28;20046;-79
2022/02/26 05:49:35;;;;;;;44.10;27.17;;;0.00;90.30;;;;;;4965257;28;20039;-78
2022/02/26 05:52:00;;;;;;;46.25;28.63;;;0.00;90.30;;;;;;4962584;28;20030;-78
2022/02/26 05:54:26;;;;;;;42.25;28.33;;;0.00;90.20;;;;;;4968580;28;20030;-81
2022/02/26 05:56:52;;;;;;;43.78;27.63;;;0.00;90.20;;;;;;4964207;28;20496;-80
2022/02/26 05:59:18;;;;;;;41.95;26.65;;;0.00;90.20;;;;;;4963719;28;20206;-82
2022/02/26 06:01:44;;;;;;;41.85;27.10;;;-3276.70;90.10;;;;;;4968182;28;20035;-79
2022/02/26 06:04:09;;;;;;;48.00;30.33;;;-3276.70;90.20;;;;;;4963651;28;20058;-79
2022/02/26 06:06:35;;;;;;;43.25;27.70;;;-3276.70;90.20;;;;;;4966593;28;20026;-78
2022/02/26 06:09:01;;;;;;;44.13;27.85;;;-3276.70;90.10;;;;;;4970652;28;20085;-76
2022/02/26 06:11:27;;;;;;;49.20;28.77;;;-3276.70;90.10;;;;;;4965034;28;20395;-81
2022/02/26 06:13:53;;;;;;;54.05;31.85;;;-3276.60;90.10;;;;;;4962640;28;20026;-76
2022/02/26 06:16:19;;;;;;;56.75;33.97;;;-3276.60;90.10;;;;;;4966395;28;20050;-78
2022/02/26 06:18:45;;;;;;;70.63;41.92;;;-3276.60;90.10;;;;;;4960302;28;20386;-79
2022/02/26 06:21:11;;;;;;;70.45;43.50;;;-3276.60;90.10;;;;;;4966052;28;20118;-83
2022/02/26 06:23:37;;;;;;;83.68;47.28;;;-3276.70;90.00;;;;;;4960016;28;20272;-77
2022/02/26 06:26:03;;;;;;;51.85;33.20;;;-3276.70;90.00;;;;;;4962897;28;20065;-83
2022/02/26 06:28:29;;;;;;;48.28;29.13;;;-3276.60;90.00;;;;;;4963623;28;20394;-79
2022/02/26 06:30:54;;;;;;;49.03;30.40;;;-3276.60;90.00;;;;;;4982022;28;20520;-77
2022/02/26 06:33:21;;;;;;;43.63;27.77;;;-3276.50;90.00;;;;;;4960690;28;20035;-80
2022/02/26 06:35:46;;;;;;;51.17;29.40;;;-3276.50;90.10;;;;;;4962534;28;20041;-76
2022/02/26 06:38:12;;;;;;;47.30;28.27;;;-3276.50;90.20;;;;;;4967857;28;20034;-78
2022/02/26 06:40:39;;;;;;;44.53;27.23;;;-3276.50;90.20;;;;;;4969760;28;20035;-79
2022/02/26 06:43:05;;;;;;;40.22;26.20;;;-3276.50;90.20;;;;;;4982034;28;20039;-84
2022/02/26 06:45:31;;;;;;;43.53;28.35;;;-3276.50;90.20;;;;;;4950009;28;20027;-82
2022/02/26 06:47:57;;;;;;;44.67;27.52;;;-3276.50;90.20;;;;;;4971539;28;20581;-80
2022/02/26 06:50:22;;;;;;;41.95;28.02;;;-3276.50;90.20;;;;;;4963808;28;20113;-79
2022/02/26 06:52:48;;;;;;;45.47;27.17;;;-3276.50;90.30;;;;;;4943646;28;20402;-77
2022/02/26 06:55:15;;;;;;;43.92;28.15;;;-3276.50;90.20;;;;;;4975357;28;20039;-78
2022/02/26 06:57:41;;;;;;;42.53;25.33;;;-3276.60;90.30;;;;;;4980037;28;20038;-80
2022/02/26 07:00:08;;;;;;;43.08;26.98;;;-3276.60;90.20;;;;;;4985019;28;20117;-79
2022/02/26 07:02:34;;;;;;;46.90;27.10;;;-3276.60;90.20;;;;;;4964930;28;20058;-81
2022/02/26 07:05:00;;;;;;;43.65;26.38;;;-3276.60;90.10;;;;;;4974413;28;20490;-82
2022/02/26 07:07:26;;;;;;;51.30;30.80;;;-3276.70;90.10;;;;;;4971657;28;20035;-77
2022/02/26 07:09:52;;;;;;;46.65;29.65;;;-3276.70;90.10;;;;;;4971723;28;20030;-80
2022/02/26 07:12:17;;;;;;;43.67;28.33;;;0.00;90.10;;;;;;4956387;28;20070;-80
2022/02/26 07:14:44;;;;;;;45.80;29.17;;;0.00;90.10;;;;;;4965721;28;20217;-79
2022/02/26 07:17:10;;;;;;;40.80;28.65;;;0.00;90.10;;;;;;4970700;28;20061;-83
2022/02/26 07:19:36;;;;;;;48.00;29.77;;;0.00;90.00;;;;;;4964652;28;20035;-81
2022/02/26 07:22:02;;;;;;;49.03;30.27;;;0.00;89.90;;;;;;4962381;28;20030;-76
2022/02/26 07:24:28;;;;;;;46.45;29.00;;;0.00;89.90;;;;;;4970260;28;20033;-79
2022/02/26 07:26:54;;;;;;;42.88;28.73;;;0.00;89.80;;;;;;4971483;28;20039;-76
2022/02/26 07:29:21;;;;;;;42.20;29.88;;;0.00;89.90;;;;;;4965856;28;20069;-82
2022/02/26 07:31:46;;;;;;;46.22;28.42;;;0.00;89.90;;;;;;4962685;28;20059;-78
2022/02/26 07:34:12;;;;;;;41.80;28.38;;;0.00;89.80;;;;;;4954624;28;20046;-77
2022/02/26 07:36:37;;;;;;;43.65;28.20;;;0.00;89.90;;;;;;4954929;28;20050;-84
2022/02/26 07:39:04;;;;;;;44.65;27.55;;;0.00;89.90;;;;;;4963456;28;20396;-82
2022/02/26 07:41:30;;;;;;;46.85;28.55;;;0.00;89.90;;;;;;4959985;28;20697;-77
2022/02/26 07:43:56;;;;;;;39.95;26.67;;;0.10;89.80;;;;;;4956867;28;20401;-80
2022/02/26 07:46:22;;;;;;;42.15;27.63;;;0.10;89.80;;;;;;4960257;28;20098;-81
2022/02/26 07:48:47;;;;;;;48.50;29.45;;;0.20;89.80;;;;;;4955235;28;20125;-78
2022/02/26 07:51:14;;;;;;;48.00;28.25;;;0.20;89.80;;;;;;4957016;28;20408;-80
2022/02/26 07:53:39;;;;;;;45.97;29.25;;;0.30;89.80;;;;;;4955343;28;20058;-80
2022/02/26 07:56:05;;;;;;;42.97;28.13;;;0.40;89.80;;;;;;4956623;28;20177;-80
2022/02/26 07:58:31;;;;;;;44.83;28.58;;;0.40;89.80;;;;;;4954175;28;20520;-77
2022/02/26 08:00:57;;;;;;;44.63;27.75;;;0.50;89.80;;;;;;4960087;28;20030;-80
2022/02/26 08:03:23;;;;;;;48.92;31.85;;;0.60;89.80;;;;;;4956306;28;20093;-80
2022/02/26 08:05:48;;;;;;;58.80;33.95;;;0.80;89.80;;;;;;4975581;28;20415;-80
2022/02/26 08:08:14;;;;;;;67.00;43.88;;;0.80;89.80;;;;;;4949842;28;20500;-80
2022/02/26 08:10:39;;;;;;;76.18;49.28;;;0.90;89.80;;;;;;4960003;28;20471;-77
2022/02/26 08:13:05;;;;;;;120.05;68.20;;;1.10;89.80;;;;;;4954582;28;20034;-83
2022/02/26 08:15:31;;;;;;;108.15;64.57;;;1.20;89.80;;;;;;4960817;28;20081;-78
2022/02/26 08:17:57;;;;;;;101.68;60.13;;;1.30;90.00;;;;;;4951817;28;20074;-78
2022/02/26 08:20:24;;;;;;;92.07;56.58;;;1.40;90.10;;;;;;4949972;28;20082;-81
2022/02/26 08:22:51;;;;;;;87.72;51.08;;;1.60;90.10;;;;;;4954168;28;20031;-82
2022/02/26 08:25:16;;;;;;;85.93;52.95;;;1.80;90.20;;;;;;4960318;28;20513;-77
2022/02/26 08:27:43;;;;;;;83.90;53.78;;;1.90;90.20;;;;;;4966060;28;20039;-82
2022/02/26 08:30:11;;;;;;;84.45;51.67;;;2.10;90.30;;;;;;4963024;28;20027;-77
2022/02/26 08:32:37;;;;;;;76.97;48.72;;;2.40;90.40;;;;;;4956916;28;20183;-81
2022/02/26 08:35:04;;;;;;;71.35;46.33;;;2.60;90.50;;;;;;4966706;28;20027;-75
2022/02/26 08:37:29;;;;;;;67.32;42.58;;;2.80;90.50;;;;;;4961131;28;20073;-75
2022/02/26 08:39:55;;;;;;;63.95;41.28;;;3.10;90.50;;;;;;4953624;28;20581;-77
2022/02/26 08:42:21;;;;;;;64.35;35.55;;;3.30;90.50;;;;;;4956761;28;20081;-73
2022/02/26 08:44:47;;;;;;;52.53;31.48;;;3.60;90.30;;;;;;4962014;28;20035;-74
2022/02/26 08:47:13;;;;;;;53.00;26.77;;;3.80;89.80;;;;;;4961771;28;20046;-74
2022/02/26 08:49:39;;;;;;;42.28;24.67;;;4.10;89.50;;;;;;4945156;28;20038;-74
2022/02/26 08:52:05;;;;;;;39.78;21.50;;;4.40;89.00;;;;;;4956992;28;20498;-75
2022/02/26 08:54:31;;;;;;;32.47;16.65;;;4.70;88.50;;;;;;4947074;28;20066;-73
2022/02/26 08:56:57;;;;;;;34.83;16.23;;;5.00;87.10;;;;;;4950596;28;20050;-74
2022/02/26 08:59:23;;;;;;;31.38;15.93;;;5.20;85.70;;;;;;4959531;28;20054;-74
2022/02/26 09:01:49;;;;;;;32.33;15.80;;;5.40;84.60;;;;;;4957058;28;20518;-72
2022/02/26 09:04:14;;;;;;;29.02;15.63;;;5.70;83.60;;;;;;4959760;28;20026;-72
2022/02/26 09:06:40;;;;;;;28.73;16.58;;;5.90;82.70;;;;;;4959524;28;20034;-72
2022/02/26 09:09:10;;;;;;;31.65;18.55;;;6.10;82.00;;;;;;4958062;28;20113;-76
2022/02/26 09:11:37;;;;;;;32.00;15.18;;;6.20;80.80;;;;;;4960635;28;20050;-73
2022/02/26 09:14:04;;;;;;;34.58;15.60;;;6.40;80.60;;;;;;4963303;28;20090;-74
2022/02/26 09:16:30;;;;;;;31.58;16.38;;;6.50;80.20;;;;;;4968044;28;20050;-75
2022/02/26 09:18:55;;;;;;;27.77;16.10;;;6.60;78.90;;;;;;4968506;28;20109;-72
2022/02/26 09:21:21;;;;;;;32.80;16.65;;;6.60;79.20;;;;;;4956873;28;20043;-73
2022/02/26 09:23:47;;;;;;;30.65;15.27;;;6.70;79.10;;;;;;4967917;28;20041;-74
2022/02/26 09:26:13;;;;;;;32.25;15.85;;;6.80;78.20;;;;;;4964208;28;20041;-75
2022/02/26 09:28:40;;;;;;;37.22;16.25;;;6.80;77.20;;;;;;4964068;28;20116;-72
2022/02/26 09:31:06;;;;;;;31.08;15.27;;;6.90;76.90;;;;;;4962669;28;20039;-73
2022/02/26 09:33:32;;;;;;;25.35;15.50;;;7.00;77.00;;;;;;4964941;28;20027;-72
2022/02/26 09:35:59;;;;;;;29.65;15.40;;;7.10;77.00;;;;;;4960306;28;20434;-75
2022/02/26 09:38:27;;;;;;;30.95;15.45;;;7.10;76.30;;;;;;4967095;28;20079;-75
2022/02/26 09:40:54;;;;;;;29.75;16.50;;;7.00;76.00;;;;;;4962355;28;20035;-75
2022/02/26 09:43:21;;;;;;;25.92;15.32;;;7.10;77.10;;;;;;4959278;28;20370;-73
2022/02/26 09:45:47;;;;;;;29.88;15.32;;;7.30;76.10;;;;;;4969249;28;20041;-73
2022/02/26 09:48:13;;;;;;;27.23;15.07;;;7.40;75.70;;;;;;4961737;28;20050;-74
2022/02/26 09:50:40;;;;;;;26.23;14.65;;;7.40;76.30;;;;;;4947963;28;20031;-74
2022/02/26 09:53:07;;;;;;;26.08;14.73;;;7.60;76.20;;;;;;4960502;28;20118;-77
2022/02/26 09:55:33;;;;;;;26.13;13.82;;;7.70;75.80;;;;;;4960733;28;20031;-75
2022/02/26 09:57:59;;;;;;;28.38;15.52;;;7.80;74.80;;;;;;4959529;28;20054;-73
2022/02/26 10:00:25;;;;;;;36.65;14.18;;;8.00;74.60;;;;;;4948815;28;20385;-73
2022/02/26 10:02:51;;;;;;;28.20;14.27;;;7.90;74.10;;;;;;4965621;28;20026;-75
2022/02/26 10:05:18;;;;;;;30.63;14.50;;;8.00;74.40;;;;;;4961332;28;20030;-78
2022/02/26 10:07:46;;;;;;;27.02;14.15;;;8.20;74.00;;;;;;4974590;28;20042;-72
2022/02/26 10:10:20;;;;;;;24.98;14.25;;;8.10;72.70;;;;;;4962954;28;20134;-74
2022/02/26 10:12:57;;;;;;;30.10;14.30;;;8.20;73.40;;;;;;4974063;28;20119;-78
2022/02/26 10:15:27;;;;;;;26.70;11.95;;;8.40;72.70;;;;;;4960946;28;20101;-75
2022/02/26 10:18:11;;;;;;;29.25;11.88;;;8.40;72.50;;;;;;4967294;28;20042;-73
2022/02/26 10:20:54;;;;;;;24.98;10.98;;;8.40;71.70;;;;;;4964327;28;20041;-76
2022/02/26 10:23:21;;;;;;;24.75;10.05;;;8.60;71.40;;;;;;4955754;28;20058;-75
2022/02/26 10:25:47;;;;;;;20.17;9.18;;;8.60;69.80;;;;;;4959603;28;20062;-74
2022/02/26 10:28:14;;;;;;;18.50;7.45;;;8.60;70.10;;;;;;4938109;28;20370;-77
2022/02/26 10:30:42;;;;;;;19.08;8.27;;;8.70;69.90;;;;;;4939018;28;20037;-76
2022/02/26 10:33:17;;;;;;;20.58;9.27;;;8.70;68.60;;;;;;4962674;28;20568;-77
2022/02/26 10:35:59;;;;;;;24.38;8.90;;;8.70;68.60;;;;;;4976287;28;20069;-75
2022/02/26 10:38:35;;;;;;;22.23;8.52;;;8.90;68.30;;;;;;4968842;28;20030;-76
2022/02/26 10:41:09;;;;;;;20.40;8.90;;;8.90;68.70;;;;;;4967694;28;20105;-75
2022/02/26 10:43:46;;;;;;;17.95;8.68;;;8.80;68.30;;;;;;4951791;28;20105;-76
2022/02/26 10:46:22;;;;;;;23.90;9.20;;;8.90;68.40;;;;;;4964702;28;20263;-74
2022/02/26 10:48:51;;;;;;;17.25;8.38;;;9.10;68.00;;;;;;4959494;28;20105;-74
2022/02/26 10:51:38;;;;;;;19.27;8.52;;;9.20;67.40;;;;;;4944326;28;21261;-74
2022/02/26 10:54:25;;;;;;;23.13;8.35;;;9.30;66.70;;;;;;4955258;28;20043;-78
2022/02/26 10:56:52;;;;;;;16.77;7.65;;;9.30;66.10;;;;;;4956513;28;20481;-78
2022/02/26 10:59:32;;;;;;;15.88;7.25;;;9.30;66.90;;;;;;4952903;28;20134;-74
2022/02/26 11:02:11;;;;;;;19.50;7.50;;;9.40;66.00;;;;;;4955515;28;20340;-75
2022/02/26 11:04:37;;;;;;;21.30;7.07;;;9.30;64.40;;;;;;4952900;28;20036;-74
2022/02/26 11:07:05;;;;;;;18.02;7.60;;;9.40;65.80;;;;;;4961853;28;20046;-77
2022/02/26 11:09:31;;;;;;;19.25;9.38;;;9.40;64.90;;;;;;4958037;28;20042;-75
2022/02/26 11:11:58;;;;;;;13.93;6.22;;;9.50;64.20;;;;;;4955057;28;20046;-77
2022/02/26 11:14:26;;;;;;;20.55;7.55;;;9.40;64.70;;;;;;4956763;28;20054;-79
2022/02/26 11:16:56;;;;;;;14.63;6.85;;;9.40;64.00;;;;;;4959238;28;20146;-76
2022/02/26 11:19:25;;;;;;;16.55;7.70;;;9.40;64.00;;;;;;4951171;28;20043;-74
2022/02/26 11:21:52;;;;;;;18.85;8.95;;;9.60;63.90;;;;;;4962130;28;20031;-79
2022/02/26 11:24:18;;;;;;;18.73;7.50;;;9.40;63.00;;;;;;4956934;28;20038;-78
2022/02/26 11:26:46;;;;;;;20.75;7.68;;;9.40;64.10;;;;;;4954160;28;20179;-75
2022/02/26 11:29:16;;;;;;;18.08;6.72;;;9.60;63.50;;;;;;4952231;28;20372;-74
2022/02/26 11:31:51;;;;;;;18.73;6.88;;;9.70;63.80;;;;;;4962889;28;20038;-77
2022/02/26 11:34:25;;;;;;;18.83;6.93;;;9.80;63.90;;;;;;4956911;28;20065;-74
2022/02/26 11:37:09;;;;;;;15.20;6.45;;;9.80;63.20;;;;;;4967230;28;20030;-76
2022/02/26 11:39:36;;;;;;;17.15;6.47;;;9.90;62.70;;;;;;4966208;28;20044;-76
2022/02/26 11:42:21;;;;;;;16.42;5.70;;;10.20;61.80;;;;;;4964649;28;20047;-78
2022/02/26 11:45:01;;;;;;;12.75;6.57;;;10.00;59.70;;;;;;4963717;28;20092;-75
2022/02/26 11:47:42;;;;;;;13.75;5.80;;;10.00;59.90;;;;;;4986864;28;20046;-78
2022/02/26 11:50:17;;;;;;;16.50;5.18;;;10.00;59.40;;;;;;4956351;28;20046;-78
2022/02/26 11:52:47;;;;;;;14.70;5.55;;;9.70;59.30;;;;;;4939317;28;20797;-77
2022/02/26 11:55:41;;;;;;;15.40;6.75;;;9.70;58.90;;;;;;4963995;28;20122;-75
2022/02/26 11:58:44;;;;;;;13.00;6.00;;;9.60;59.00;;;;;;4954489;28;20063;-79
2022/02/26 12:01:16;;;;;;;13.35;6.45;;;9.70;59.90;;;;;;4954551;28;20057;-76
2022/02/26 12:03:43;;;;;;;16.38;6.53;;;9.60;59.20;;;;;;4964164;28;20035;-80
2022/02/26 12:06:08;;;;;;;20.27;7.40;;;9.40;60.30;;;;;;4954790;28;20083;-81
2022/02/26 12:08:40;;;;;;;14.02;6.90;;;9.50;60.70;;;;;;4959224;28;20461;-76
2022/02/26 12:11:08;;;;;;;16.75;7.88;;;9.70;61.00;;;;;;4941136;28;20465;-81
2022/02/26 12:13:36;;;;;;;17.92;7.65;;;9.60;60.80;;;;;;4952300;28;20039;-76
2022/02/26 12:16:20;;;;;;;16.05;7.57;;;9.60;61.00;;;;;;4956402;28;20065;-78
2022/02/26 12:19:06;;;;;;;19.52;7.45;;;9.70;60.70;;;;;;4950424;28;20464;-78
2022/02/26 12:21:36;;;;;;;19.63;9.88;;;9.70;61.30;;;;;;4970919;28;20043;-76
2022/02/26 12:24:16;;;;;;;14.98;6.82;;;9.80;59.80;;;;;;4952795;28;20041;-75
2022/02/26 12:26:45;;;;;;;17.15;6.28;;;10.00;59.40;;;;;;4935261;28;20031;-75
2022/02/26 12:29:44;;;;;;;12.50;5.32;;;9.90;58.90;;;;;;4959951;28;20047;-77
2022/02/26 12:32:15;;;;;;;14.18;5.47;;;9.90;58.20;;;;;;4955618;28;20576;-77
2022/02/26 12:35:02;;;;;;;13.77;5.38;;;9.90;58.30;;;;;;4960918;28;20070;-80
2022/02/26 12:37:37;;;;;;;12.68;5.68;;;9.90;58.70;;;;;;4961522;28;20047;-73